createdAt,value
2022-10-30T00:00:01.102Z,14.5
2022-10-30T00:01:03.657Z,14.5
2022-10-30T00:02:01.489Z,14.5
2022-10-30T00:03:01.741Z,14.5
2022-10-30T00:04:01.187Z,14.5
2022-10-30T00:05:01.143Z,14.5
2022-10-30T00:06:05.676Z,14.5
2022-10-30T00:07:01.270Z,14.5
2022-10-30T00:08:02.206Z,14.5
2022-10-30T00:09:02.087Z,14.5
2022-10-30T00:10:01.796Z,14.5
2022-10-30T00:11:09.099Z,14.5
2022-10-30T00:12:01.081Z,14.5
2022-10-30T00:13:01.193Z,14.5
2022-10-30T00:14:01.096Z,14.5
2022-10-30T00:15:01.799Z,14.5
2022-10-30T00:16:11.016Z,14.5
2022-10-30T00:17:01.932Z,14.4
2022-10-30T00:18:01.264Z,14.4
2022-10-30T00:19:01.047Z,14.4
2022-10-30T00:20:01.130Z,14.5
2022-10-30T00:21:13.974Z,14.5
2022-10-30T00:23:01.428Z,14.5
2022-10-30T00:24:01.103Z,14.5
2022-10-30T00:25:01.080Z,14.5
2022-10-30T00:26:16.217Z,14.5
2022-10-30T00:27:02.091Z,14.4
2022-10-30T00:28:01.088Z,14.4
2022-10-30T00:29:01.201Z,14.4
2022-10-30T00:30:01.075Z,14.4
2022-10-30T00:31:01.311Z,14.4
2022-10-30T00:32:02.018Z,14.4
2022-10-30T00:33:01.920Z,14.4
2022-10-30T00:34:03.024Z,14.4
2022-10-30T00:35:01.787Z,14.4
2022-10-30T00:36:01.461Z,14.3
2022-10-30T00:37:01.351Z,14.3
2022-10-30T00:38:02.444Z,14.3
2022-10-30T00:39:01.950Z,14.3
2022-10-30T00:40:01.164Z,14.3
2022-10-30T00:41:01.066Z,14.3
2022-10-30T00:42:01.202Z,14.2
2022-10-30T00:43:01.116Z,14.2
2022-10-30T00:44:01.332Z,14.2
2022-10-30T00:45:01.430Z,14.1
2022-10-30T00:46:01.065Z,14.1
2022-10-30T00:47:01.108Z,14.1
2022-10-30T00:48:01.711Z,14.1
2022-10-30T00:49:01.796Z,14.1
2022-10-30T00:50:01.137Z,14.1
2022-10-30T00:51:01.117Z,14.1
2022-10-30T00:52:01.216Z,14.1
2022-10-30T00:53:01.699Z,14.1
2022-10-30T00:54:01.236Z,14.2
2022-10-30T00:55:01.149Z,14.2
2022-10-30T00:56:01.175Z,14.2
2022-10-30T00:57:01.639Z,14.2
2022-10-30T00:58:01.074Z,14.2
2022-10-30T00:59:01.767Z,14.2
2022-10-30T01:00:00.659Z,14.2
2022-10-30T01:01:00.301Z,14.2
2022-10-30T01:02:00.062Z,14.1
2022-10-30T01:03:00.531Z,14.1
2022-10-30T01:04:00.344Z,14.1
2022-10-30T01:05:00.018Z,14.1
2022-10-30T01:06:00.142Z,14.1
2022-10-30T01:06:59.789Z,14.1
2022-10-30T01:08:01.742Z,14.1
2022-10-30T01:09:02.868Z,14.1
2022-10-30T01:10:00.828Z,14.1
2022-10-30T01:11:00.555Z,14.1
2022-10-30T01:12:00.444Z,14.1
2022-10-30T01:13:00.008Z,14.1
2022-10-30T01:14:00.781Z,14.1
2022-10-30T01:15:00.491Z,14
2022-10-30T01:16:00.168Z,14
2022-10-30T01:17:00.274Z,14
2022-10-30T01:18:00.269Z,14
2022-10-30T01:19:00.145Z,14
2022-10-30T01:19:59.772Z,14
2022-10-30T01:21:01.687Z,14
2022-10-30T01:21:59.895Z,14
2022-10-30T01:23:00.130Z,14
2022-10-30T01:24:00.006Z,14
2022-10-30T01:24:59.695Z,14
2022-10-30T01:26:01.345Z,14
2022-10-30T01:27:00.735Z,14
2022-10-30T01:28:00.433Z,14
2022-10-30T01:29:00.131Z,14
2022-10-30T01:29:59.720Z,13.9
2022-10-30T01:31:01.489Z,13.9
2022-10-30T01:32:00.784Z,13.9
2022-10-30T01:33:00.631Z,13.9
2022-10-30T01:34:00.530Z,13.9
2022-10-30T01:35:00.642Z,13.8
2022-10-30T01:36:00.281Z,13.9
2022-10-30T01:36:59.881Z,13.8
2022-10-30T01:37:59.808Z,13.8
2022-10-30T01:38:59.517Z,13.8
2022-10-30T01:40:01.167Z,13.8
2022-10-30T01:41:00.830Z,13.8
2022-10-30T01:42:00.437Z,13.8
2022-10-30T01:43:00.068Z,13.8
2022-10-30T01:43:59.746Z,13.8
2022-10-30T01:45:01.389Z,13.8
2022-10-30T01:46:01.126Z,13.7
2022-10-30T01:47:01.791Z,13.8
2022-10-30T01:48:01.055Z,13.7
2022-10-30T01:49:00.973Z,13.7
2022-10-30T01:50:00.577Z,13.7
2022-10-30T01:51:00.168Z,13.7
2022-10-30T01:52:04.089Z,13.7
2022-10-30T01:53:01.136Z,13.6
2022-10-30T01:54:01.006Z,13.6
2022-10-30T01:55:00.606Z,13.6
2022-10-30T01:56:00.199Z,13.6
2022-10-30T01:57:05.874Z,13.6
2022-10-30T01:58:01.345Z,13.6
2022-10-30T01:59:00.928Z,13.6
2022-10-30T02:00:01.051Z,13.7
2022-10-30T02:01:01.097Z,13.7
2022-10-30T02:02:08.669Z,13.8
2022-10-30T02:03:01.689Z,13.8
2022-10-30T02:04:01.372Z,13.8
2022-10-30T02:05:01.081Z,13.8
2022-10-30T02:06:01.099Z,13.8
2022-10-30T02:07:11.072Z,13.8
2022-10-30T02:08:02.016Z,13.8
2022-10-30T02:09:01.189Z,13.8
2022-10-30T02:10:01.262Z,13.9
2022-10-30T02:11:02.086Z,13.9
2022-10-30T02:12:13.236Z,13.9
2022-10-30T02:13:01.147Z,13.9
2022-10-30T02:14:01.949Z,13.9
2022-10-30T02:15:01.164Z,13.9
2022-10-30T02:16:01.325Z,13.9
2022-10-30T02:17:15.612Z,13.9
2022-10-30T02:18:01.838Z,13.9
2022-10-30T02:19:01.475Z,13.9
2022-10-30T02:20:02.083Z,13.9
2022-10-30T02:21:01.475Z,13.9
2022-10-30T02:22:25.312Z,13.9
2022-10-30T02:23:17.813Z,13.9
2022-10-30T02:24:03.556Z,13.9
2022-10-30T02:25:01.052Z,13.9
2022-10-30T02:26:01.133Z,13.9
2022-10-30T02:27:01.379Z,13.8
2022-10-30T02:28:01.171Z,13.9
2022-10-30T02:29:00.895Z,13.8
2022-10-30T02:30:01.160Z,13.8
2022-10-30T02:31:01.160Z,13.8
2022-10-30T02:32:01.063Z,13.8
2022-10-30T02:33:01.801Z,13.8
2022-10-30T02:34:02.215Z,13.8
2022-10-30T02:35:01.076Z,13.8
2022-10-30T02:36:01.076Z,13.8
2022-10-30T02:37:01.106Z,13.8
2022-10-30T02:38:01.388Z,13.8
2022-10-30T02:39:01.107Z,13.8
2022-10-30T02:40:01.317Z,13.8
2022-10-30T02:41:01.274Z,13.8
2022-10-30T02:42:01.291Z,13.8
2022-10-30T02:43:01.171Z,13.8
2022-10-30T02:44:02.100Z,13.8
2022-10-30T02:45:01.159Z,13.8
2022-10-30T02:46:01.153Z,13.8
2022-10-30T02:47:01.796Z,13.8
2022-10-30T02:48:02.587Z,13.8
2022-10-30T02:49:01.750Z,13.8
2022-10-30T02:50:01.106Z,13.8
2022-10-30T02:51:01.482Z,13.8
2022-10-30T02:52:02.196Z,13.8
2022-10-30T02:53:02.190Z,13.8
2022-10-30T02:54:02.698Z,13.8
2022-10-30T02:55:02.190Z,13.8
2022-10-30T02:56:02.431Z,13.8
2022-10-30T02:57:01.116Z,13.8
2022-10-30T02:58:01.204Z,13.8
2022-10-30T02:59:01.144Z,13.9
2022-10-30T03:00:01.144Z,13.9
2022-10-30T03:01:01.531Z,13.9
2022-10-30T03:02:01.280Z,13.9
2022-10-30T03:03:01.226Z,13.9
2022-10-30T03:04:02.704Z,13.9
2022-10-30T03:05:02.421Z,13.9
2022-10-30T03:06:01.080Z,13.9
2022-10-30T03:07:01.088Z,13.8
2022-10-30T03:08:01.566Z,13.9
2022-10-30T03:09:00.675Z,13.9
2022-10-30T03:10:00.299Z,13.9
2022-10-30T03:11:00.171Z,13.9
2022-10-30T03:11:59.924Z,13.9
2022-10-30T03:12:59.606Z,13.9
2022-10-30T03:14:01.596Z,13.9
2022-10-30T03:15:01.184Z,13.9
2022-10-30T03:16:01.908Z,14
2022-10-30T03:17:01.136Z,13.9
2022-10-30T03:18:01.314Z,13.9
2022-10-30T03:19:02.496Z,13.9
2022-10-30T03:20:02.415Z,13.9
2022-10-30T03:21:01.108Z,13.9
2022-10-30T03:22:01.075Z,13.9
2022-10-30T03:23:01.100Z,13.9
2022-10-30T03:24:01.450Z,13.9
2022-10-30T03:25:01.089Z,13.9
2022-10-30T03:26:01.093Z,13.9
2022-10-30T03:27:01.108Z,13.9
2022-10-30T03:28:01.629Z,13.9
2022-10-30T03:29:01.447Z,13.9
2022-10-30T03:30:01.762Z,13.9
2022-10-30T03:31:01.201Z,13.9
2022-10-30T03:32:01.631Z,13.9
2022-10-30T03:33:01.264Z,13.9
2022-10-30T03:34:00.658Z,13.9
2022-10-30T03:35:00.341Z,13.9
2022-10-30T03:36:00.157Z,13.9
2022-10-30T03:36:59.835Z,13.9
2022-10-30T03:38:02.281Z,13.9
2022-10-30T03:39:01.497Z,13.8
2022-10-30T03:40:01.950Z,13.8
2022-10-30T03:41:01.106Z,13.9
2022-10-30T03:42:01.095Z,13.8
2022-10-30T03:43:01.300Z,13.8
2022-10-30T03:44:01.107Z,13.8
2022-10-30T03:45:01.463Z,13.8
2022-10-30T03:46:01.450Z,13.8
2022-10-30T03:47:02.528Z,13.8
2022-10-30T03:48:02.668Z,13.8
2022-10-30T03:49:01.133Z,13.8
2022-10-30T03:50:01.148Z,13.8
2022-10-30T03:51:01.175Z,13.8
2022-10-30T03:52:01.154Z,13.8
2022-10-30T03:53:04.756Z,13.8
2022-10-30T03:54:01.593Z,13.8
2022-10-30T03:55:01.630Z,13.8
2022-10-30T03:56:01.730Z,13.8
2022-10-30T03:57:01.101Z,13.8
2022-10-30T03:58:08.445Z,13.8
2022-10-30T03:59:01.124Z,13.8
2022-10-30T04:00:01.119Z,13.8
2022-10-30T04:01:01.938Z,13.9
2022-10-30T04:02:01.653Z,13.9
2022-10-30T04:03:10.518Z,13.9
2022-10-30T04:04:01.426Z,13.9
2022-10-30T04:05:01.327Z,13.9
2022-10-30T04:06:01.528Z,13.9
2022-10-30T04:07:01.153Z,13.9
2022-10-30T04:08:08.142Z,13.8
2022-10-30T04:09:01.104Z,13.8
2022-10-30T04:10:01.076Z,13.8
2022-10-30T04:11:01.188Z,13.8
2022-10-30T04:12:01.093Z,13.8
2022-10-30T04:13:15.571Z,13.8
2022-10-30T04:14:01.329Z,13.8
2022-10-30T04:15:01.227Z,13.8
2022-10-30T04:16:01.445Z,13.8
2022-10-30T04:17:02.044Z,13.8
2022-10-30T04:18:01.718Z,13.8
2022-10-30T04:19:01.142Z,13.8
2022-10-30T04:20:01.320Z,13.9
2022-10-30T04:21:01.153Z,13.9
2022-10-30T04:22:01.150Z,13.9
2022-10-30T04:23:01.065Z,13.9
2022-10-30T04:24:01.072Z,14
2022-10-30T04:25:01.182Z,14
2022-10-30T04:26:01.351Z,13.9
2022-10-30T04:27:01.564Z,13.9
2022-10-30T04:28:01.477Z,13.9
2022-10-30T04:29:01.757Z,13.9
2022-10-30T04:30:01.982Z,13.9
2022-10-30T04:31:01.805Z,13.9
2022-10-30T04:32:01.248Z,13.9
2022-10-30T04:33:02.455Z,13.9
2022-10-30T04:34:02.569Z,13.9
2022-10-30T04:35:01.439Z,13.9
2022-10-30T04:36:02.152Z,13.9
2022-10-30T04:37:01.512Z,13.9
2022-10-30T04:38:01.197Z,14
2022-10-30T04:39:02.455Z,14
2022-10-30T04:40:01.803Z,14
2022-10-30T04:41:01.080Z,14
2022-10-30T04:42:01.077Z,14
2022-10-30T04:43:01.385Z,14
2022-10-30T04:44:00.878Z,14
2022-10-30T04:45:04.837Z,14
2022-10-30T04:46:01.313Z,14
2022-10-30T04:47:01.117Z,14
2022-10-30T04:48:01.503Z,13.9
2022-10-30T04:49:01.143Z,13.9
2022-10-30T04:50:01.529Z,14
2022-10-30T04:51:01.236Z,13.9
2022-10-30T04:52:01.128Z,13.9
2022-10-30T04:53:01.152Z,13.9
2022-10-30T04:54:01.981Z,13.9
2022-10-30T04:55:01.332Z,13.9
2022-10-30T04:56:01.077Z,13.9
2022-10-30T04:57:01.083Z,13.9
2022-10-30T04:58:01.516Z,13.9
2022-10-30T04:59:01.575Z,13.9
2022-10-30T05:00:01.185Z,13.9
2022-10-30T05:01:03.338Z,13.9
2022-10-30T05:02:01.245Z,13.9
2022-10-30T05:03:01.074Z,13.8
2022-10-30T05:04:01.133Z,13.8
2022-10-30T05:05:01.045Z,13.8
2022-10-30T05:06:01.204Z,13.8
2022-10-30T05:07:01.136Z,13.8
2022-10-30T05:08:01.740Z,13.8
2022-10-30T05:09:01.540Z,13.8
2022-10-30T05:10:01.624Z,13.8
2022-10-30T05:11:01.754Z,13.8
2022-10-30T05:12:01.077Z,13.8
2022-10-30T05:13:01.895Z,13.8
2022-10-30T05:14:01.406Z,13.8
2022-10-30T05:15:01.135Z,13.9
2022-10-30T05:16:01.111Z,13.9
2022-10-30T05:17:01.105Z,13.9
2022-10-30T05:18:01.864Z,13.9
2022-10-30T05:19:01.109Z,14
2022-10-30T05:20:01.544Z,14
2022-10-30T05:21:01.136Z,14
2022-10-30T05:22:01.127Z,14
2022-10-30T05:23:03.073Z,14
2022-10-30T05:24:01.250Z,14
2022-10-30T05:25:01.552Z,14
2022-10-30T05:26:01.166Z,14
2022-10-30T05:27:01.161Z,14
2022-10-30T05:28:01.817Z,13.9
2022-10-30T05:29:01.308Z,13.9
2022-10-30T05:30:01.951Z,13.9
2022-10-30T05:31:01.537Z,13.9
2022-10-30T05:32:01.428Z,13.9
2022-10-30T05:33:01.472Z,13.9
2022-10-30T05:34:07.204Z,13.9
2022-10-30T05:35:01.916Z,13.9
2022-10-30T05:36:02.444Z,13.9
2022-10-30T05:37:01.142Z,13.9
2022-10-30T05:38:01.394Z,14
2022-10-30T05:39:06.892Z,13.9
2022-10-30T05:40:01.026Z,13.9
2022-10-30T05:41:01.780Z,13.9
2022-10-30T05:42:01.294Z,13.9
2022-10-30T05:43:02.232Z,13.8
2022-10-30T05:44:10.826Z,13.8
2022-10-30T05:45:02.438Z,13.8
2022-10-30T05:46:04.387Z,13.8
2022-10-30T05:47:01.139Z,13.8
2022-10-30T05:48:02.521Z,13.8
2022-10-30T05:49:14.656Z,13.8
2022-10-30T05:50:01.051Z,13.8
2022-10-30T05:51:01.224Z,13.8
2022-10-30T05:52:01.510Z,13.8
2022-10-30T05:53:01.518Z,13.8
2022-10-30T05:54:01.242Z,13.8
2022-10-30T05:55:01.943Z,13.8
2022-10-30T05:56:02.288Z,13.8
2022-10-30T05:57:01.172Z,13.9
2022-10-30T05:58:02.263Z,14
2022-10-30T05:59:01.196Z,14
2022-10-30T06:00:00.907Z,14
2022-10-30T06:01:01.479Z,14
2022-10-30T06:02:02.306Z,14
2022-10-30T06:03:02.519Z,14
2022-10-30T06:04:01.438Z,14
2022-10-30T06:05:01.154Z,14
2022-10-30T06:06:02.192Z,14.1
2022-10-30T06:07:01.126Z,14.1
2022-10-30T06:08:01.167Z,14.1
2022-10-30T06:09:01.148Z,14.1
2022-10-30T06:10:01.293Z,14.1
2022-10-30T06:11:01.161Z,14.1
2022-10-30T06:12:01.162Z,14.1
2022-10-30T06:13:01.687Z,14.1
2022-10-30T06:14:01.192Z,14.1
2022-10-30T06:15:01.051Z,14.1
2022-10-30T06:16:01.082Z,14.1
2022-10-30T06:17:01.231Z,14.1
2022-10-30T06:18:01.833Z,14.2
2022-10-30T06:19:01.124Z,14.2
2022-10-30T06:20:00.779Z,14.1
2022-10-30T06:21:00.393Z,14.2
2022-10-30T06:22:00.092Z,14.2
2022-10-30T06:22:59.872Z,14.3
2022-10-30T06:23:59.813Z,14.3
2022-10-30T06:25:01.449Z,14.3
2022-10-30T06:26:02.849Z,14.3
2022-10-30T06:27:01.168Z,14.3
2022-10-30T06:28:01.720Z,14.3
2022-10-30T06:29:01.057Z,14.3
2022-10-30T06:30:01.058Z,14.3
2022-10-30T06:31:01.110Z,14.3
2022-10-30T06:32:03.957Z,14.3
2022-10-30T06:33:01.794Z,14.3
2022-10-30T06:34:02.524Z,14.3
2022-10-30T06:35:01.101Z,14.3
2022-10-30T06:36:01.084Z,14.3
2022-10-30T06:37:01.867Z,14.3
2022-10-30T06:38:01.440Z,14.3
2022-10-30T06:39:01.148Z,14.3
2022-10-30T06:40:00.813Z,14.3
2022-10-30T06:41:00.500Z,14.3
2022-10-30T06:42:00.219Z,14.4
2022-10-30T06:43:00.214Z,14.3
2022-10-30T06:44:00.140Z,14.3
2022-10-30T06:44:59.711Z,14.3
2022-10-30T06:46:02.088Z,14.3
2022-10-30T06:47:01.072Z,14.3
2022-10-30T06:48:01.591Z,14.3
2022-10-30T06:49:01.079Z,14.3
2022-10-30T06:50:01.119Z,14.3
2022-10-30T06:51:01.091Z,14.3
2022-10-30T06:52:01.089Z,14.3
2022-10-30T06:53:01.424Z,14.3
2022-10-30T06:54:01.424Z,14.3
2022-10-30T06:55:02.787Z,14.3
2022-10-30T06:56:01.060Z,14.3
2022-10-30T06:57:01.127Z,14.3
2022-10-30T06:58:01.616Z,14.3
2022-10-30T06:59:01.856Z,14.3
2022-10-30T07:00:01.861Z,14.3
2022-10-30T07:01:01.173Z,14.3
2022-10-30T07:02:02.487Z,14.4
2022-10-30T07:03:02.233Z,14.4
2022-10-30T07:04:01.458Z,14.4
2022-10-30T07:05:02.150Z,14.4
2022-10-30T07:06:01.051Z,14.5
2022-10-30T07:07:01.063Z,14.5
2022-10-30T07:08:01.113Z,14.5
2022-10-30T07:09:01.100Z,14.5
2022-10-30T07:10:01.102Z,14.5
2022-10-30T07:11:01.466Z,14.5
2022-10-30T07:12:06.582Z,14.5
2022-10-30T07:13:01.513Z,14.5
2022-10-30T07:14:02.333Z,14.4
2022-10-30T07:15:03.682Z,14.5
2022-10-30T07:16:02.584Z,14.5
2022-10-30T07:17:01.101Z,14.5
2022-10-30T07:18:01.684Z,14.5
2022-10-30T07:19:04.520Z,14.5
2022-10-30T07:20:05.841Z,14.5
2022-10-30T07:21:01.717Z,14.5
2022-10-30T07:22:02.103Z,14.5
2022-10-30T07:23:01.415Z,14.5
2022-10-30T07:24:01.256Z,14.5
2022-10-30T07:25:09.496Z,14.5
2022-10-30T07:26:04.243Z,14.5
2022-10-30T07:27:01.202Z,14.5
2022-10-30T07:28:01.833Z,14.5
2022-10-30T07:29:01.232Z,14.5
2022-10-30T07:30:11.876Z,14.5
2022-10-30T07:31:02.481Z,14.6
2022-10-30T07:32:03.692Z,14.6
2022-10-30T07:33:01.993Z,14.6
2022-10-30T07:34:01.070Z,14.6
2022-10-30T07:35:14.360Z,14.6
2022-10-30T07:36:07.881Z,14.6
2022-10-30T07:37:01.055Z,14.7
2022-10-30T07:38:01.103Z,14.7
2022-10-30T07:39:01.876Z,14.7
2022-10-30T07:40:16.116Z,14.8
2022-10-30T07:41:01.493Z,14.8
2022-10-30T07:42:01.056Z,14.8
2022-10-30T07:43:01.645Z,14.8
2022-10-30T07:44:01.214Z,14.9
2022-10-30T07:45:01.117Z,14.9
2022-10-30T07:46:01.040Z,15
2022-10-30T07:47:01.332Z,15
2022-10-30T07:48:01.663Z,15
2022-10-30T07:49:02.582Z,15.1
2022-10-30T07:50:01.176Z,15.1
2022-10-30T07:51:01.734Z,15.1
2022-10-30T07:52:01.128Z,15.1
2022-10-30T07:53:01.403Z,15.2
2022-10-30T07:54:01.225Z,15.3
2022-10-30T07:55:03.394Z,15.3
2022-10-30T07:56:02.613Z,15.3
2022-10-30T07:57:01.115Z,15.3
2022-10-30T07:58:01.710Z,15.4
2022-10-30T07:59:01.137Z,15.4
2022-10-30T08:00:04.592Z,15.5
2022-10-30T08:01:02.167Z,15.5
2022-10-30T08:02:01.441Z,15.5
2022-10-30T08:03:02.507Z,15.5
2022-10-30T08:04:01.175Z,15.5
2022-10-30T08:05:04.274Z,15.6
2022-10-30T08:06:02.632Z,15.6
2022-10-30T08:07:01.069Z,15.6
2022-10-30T08:08:01.913Z,15.6
2022-10-30T08:09:01.800Z,15.6
2022-10-30T08:10:00.782Z,15.6
2022-10-30T08:11:00.529Z,15.6
2022-10-30T08:12:00.307Z,15.7
2022-10-30T08:13:00.275Z,15.7
2022-10-30T08:13:59.956Z,15.8
2022-10-30T08:14:59.678Z,15.8
2022-10-30T08:16:01.439Z,15.8
2022-10-30T08:17:00.967Z,15.8
2022-10-30T08:18:01.581Z,15.8
2022-10-30T08:19:01.148Z,15.8
2022-10-30T08:20:01.157Z,15.8
2022-10-30T08:21:01.159Z,15.9
2022-10-30T08:22:01.061Z,15.9
2022-10-30T08:23:01.696Z,16
2022-10-30T08:24:01.073Z,16
2022-10-30T08:25:01.082Z,16
2022-10-30T08:26:01.357Z,16
2022-10-30T08:27:02.415Z,16.1
2022-10-30T08:28:02.244Z,16.1
2022-10-30T08:29:01.080Z,16.1
2022-10-30T08:30:01.738Z,16.2
2022-10-30T08:31:01.939Z,16.2
2022-10-30T08:32:01.371Z,16.3
2022-10-30T08:33:02.897Z,16.3
2022-10-30T08:34:01.080Z,16.3
2022-10-30T08:35:01.159Z,16.4
2022-10-30T08:36:01.583Z,16.4
2022-10-30T08:37:01.822Z,16.4
2022-10-30T08:38:02.023Z,16.5
2022-10-30T08:39:03.393Z,16.5
2022-10-30T08:40:01.990Z,16.5
2022-10-30T08:41:02.199Z,16.5
2022-10-30T08:42:01.106Z,16.5
2022-10-30T08:43:01.109Z,16.5
2022-10-30T08:44:01.119Z,16.5
2022-10-30T08:45:01.054Z,16.5
2022-10-30T08:46:01.142Z,16.6
2022-10-30T08:47:02.758Z,16.6
2022-10-30T08:48:02.092Z,16.6
2022-10-30T08:49:01.717Z,16.6
2022-10-30T08:50:01.179Z,16.6
2022-10-30T08:51:01.170Z,16.6
2022-10-30T08:52:01.797Z,16.6
2022-10-30T08:53:02.314Z,16.7
2022-10-30T08:54:01.566Z,16.7
2022-10-30T08:55:01.279Z,16.8
2022-10-30T08:56:01.745Z,16.8
2022-10-30T08:57:02.159Z,16.8
2022-10-30T08:58:01.785Z,16.9
2022-10-30T08:59:01.163Z,16.9
2022-10-30T09:00:01.222Z,16.9
2022-10-30T09:01:03.828Z,16.9
2022-10-30T09:02:01.618Z,17
2022-10-30T09:03:02.277Z,17
2022-10-30T09:04:01.852Z,17
2022-10-30T09:05:01.947Z,17
2022-10-30T09:06:06.221Z,17
2022-10-30T09:07:02.577Z,17
2022-10-30T09:08:04.102Z,17.1
2022-10-30T09:09:01.252Z,17.1
2022-10-30T09:10:01.964Z,17.1
2022-10-30T09:11:09.275Z,17.2
2022-10-30T09:12:02.357Z,17.3
2022-10-30T09:13:01.941Z,17.3
2022-10-30T09:14:00.675Z,17.3
2022-10-30T09:15:00.385Z,17.3
2022-10-30T09:16:10.984Z,17.4
2022-10-30T09:17:01.498Z,17.5
2022-10-30T09:18:02.078Z,17.5
2022-10-30T09:19:01.179Z,17.5
2022-10-30T09:20:01.976Z,17.5
2022-10-30T09:21:12.785Z,17.5
2022-10-30T09:22:01.054Z,17.5
2022-10-30T09:23:01.600Z,17.6
2022-10-30T09:24:01.068Z,17.6
2022-10-30T09:25:01.403Z,17.6
2022-10-30T09:26:16.973Z,17.6
2022-10-30T09:27:01.531Z,17.6
2022-10-30T09:28:01.538Z,17.6
2022-10-30T09:29:02.156Z,17.6
2022-10-30T09:30:02.154Z,17.7
2022-10-30T09:31:01.913Z,17.7
2022-10-30T09:32:02.021Z,17.8
2022-10-30T09:33:02.045Z,17.8
2022-10-30T09:34:01.525Z,17.8
2022-10-30T09:35:00.894Z,17.8
2022-10-30T09:36:01.148Z,17.8
2022-10-30T09:37:01.549Z,17.9
2022-10-30T09:38:01.654Z,17.9
2022-10-30T09:39:01.185Z,17.9
2022-10-30T09:40:01.147Z,18
2022-10-30T09:41:00.851Z,18
2022-10-30T09:42:01.063Z,18
2022-10-30T09:43:01.048Z,18
2022-10-30T09:44:01.061Z,18
2022-10-30T09:45:27.495Z,18
2022-10-30T09:46:01.096Z,18
2022-10-30T09:47:02.076Z,18.1
2022-10-30T09:48:01.599Z,18.1
2022-10-30T09:49:01.262Z,18.1
2022-10-30T09:50:01.358Z,18.1
2022-10-30T09:51:02.140Z,18.2
2022-10-30T09:52:01.135Z,18.2
2022-10-30T09:53:01.395Z,18.3
2022-10-30T09:54:01.176Z,18.3
2022-10-30T09:55:01.548Z,18.3
2022-10-30T09:56:02.108Z,18.3
2022-10-30T09:57:02.302Z,18.3
2022-10-30T09:58:01.891Z,18.4
2022-10-30T09:59:01.117Z,18.4
2022-10-30T10:00:01.312Z,18.4
2022-10-30T10:01:06.113Z,18.4
2022-10-30T10:02:01.608Z,18.5
2022-10-30T10:03:01.860Z,18.5
2022-10-30T10:04:01.375Z,18.5
2022-10-30T10:05:01.121Z,18.5
2022-10-30T10:06:01.121Z,18.5
2022-10-30T10:07:01.138Z,18.5
2022-10-30T10:08:02.808Z,18.5
2022-10-30T10:09:01.849Z,18.5
2022-10-30T10:10:02.322Z,18.5
2022-10-30T10:11:01.564Z,18.6
2022-10-30T10:12:01.166Z,18.5
2022-10-30T10:13:01.636Z,18.6
2022-10-30T10:14:01.180Z,18.6
2022-10-30T10:15:01.381Z,18.6
2022-10-30T10:16:01.819Z,18.6
2022-10-30T10:17:01.237Z,18.6
2022-10-30T10:18:01.501Z,18.7
2022-10-30T10:19:01.710Z,18.8
2022-10-30T10:20:01.154Z,18.8
2022-10-30T10:21:00.874Z,18.9
2022-10-30T10:22:01.160Z,18.8
2022-10-30T10:23:00.835Z,18.9
2022-10-30T10:24:00.822Z,18.9
2022-10-30T10:25:00.472Z,18.9
2022-10-30T10:26:00.178Z,18.9
2022-10-30T10:26:59.948Z,19
2022-10-30T10:27:59.983Z,19
2022-10-30T10:28:59.611Z,19
2022-10-30T10:30:01.750Z,19
2022-10-30T10:31:01.380Z,19.1
2022-10-30T10:32:02.543Z,19.1
2022-10-30T10:33:01.588Z,19.1
2022-10-30T10:34:02.757Z,19.1
2022-10-30T10:35:01.152Z,19.1
2022-10-30T10:36:01.222Z,19.1
2022-10-30T10:37:01.535Z,19.1
2022-10-30T10:38:02.030Z,19.2
2022-10-30T10:39:01.199Z,19.2
2022-10-30T10:40:01.468Z,19.3
2022-10-30T10:41:01.488Z,19.3
2022-10-30T10:42:00.554Z,19.3
2022-10-30T10:43:00.146Z,19.3
2022-10-30T10:43:59.829Z,19.3
2022-10-30T10:45:01.773Z,19.3
2022-10-30T10:46:01.205Z,19.3
2022-10-30T10:47:07.017Z,19.4
2022-10-30T10:48:01.839Z,19.3
2022-10-30T10:49:02.647Z,19.4
2022-10-30T10:50:01.758Z,19.4
2022-10-30T10:51:01.626Z,19.5
2022-10-30T10:52:02.791Z,19.5
2022-10-30T10:53:02.321Z,19.5
2022-10-30T10:54:01.741Z,19.5
2022-10-30T10:55:01.720Z,19.5
2022-10-30T10:56:01.450Z,19.6
2022-10-30T10:57:06.639Z,19.6
2022-10-30T10:58:01.250Z,19.6
2022-10-30T10:59:08.050Z,19.6
2022-10-30T11:00:04.361Z,19.6
2022-10-30T11:01:01.369Z,19.6
2022-10-30T11:02:11.006Z,19.7
2022-10-30T11:03:02.690Z,19.7
2022-10-30T11:04:01.775Z,19.8
2022-10-30T11:05:01.480Z,19.8
2022-10-30T11:06:01.180Z,19.8
2022-10-30T11:07:12.788Z,19.8
2022-10-30T11:08:02.150Z,19.9
2022-10-30T11:09:01.929Z,19.9
2022-10-30T11:10:01.395Z,19.9
2022-10-30T11:11:01.146Z,19.9
2022-10-30T11:12:15.729Z,20
2022-10-30T11:13:01.883Z,20
2022-10-30T11:14:02.621Z,20
2022-10-30T11:15:01.073Z,20
2022-10-30T11:16:01.824Z,20.1
2022-10-30T11:17:01.981Z,20.1
2022-10-30T11:18:01.361Z,20.1
2022-10-30T11:19:03.859Z,20.1
2022-10-30T11:20:01.136Z,20.1
2022-10-30T11:21:01.115Z,20.1
2022-10-30T11:22:00.868Z,20.1
2022-10-30T11:23:01.003Z,20.1
2022-10-30T11:24:01.127Z,20.1
2022-10-30T11:25:01.122Z,20.1
2022-10-30T11:26:01.123Z,20.1
2022-10-30T11:27:01.171Z,20.1
2022-10-30T11:28:01.157Z,20.2
2022-10-30T11:29:01.545Z,20.2
2022-10-30T11:30:01.994Z,20.2
2022-10-30T11:31:02.483Z,20.2
2022-10-30T11:32:01.051Z,20.2
2022-10-30T11:33:01.384Z,20.2
2022-10-30T11:34:01.137Z,20.2
2022-10-30T11:35:01.154Z,20.3
2022-10-30T11:36:01.093Z,20.2
2022-10-30T11:37:01.216Z,20.2
2022-10-30T11:38:01.673Z,20.3
2022-10-30T11:39:08.027Z,20.3
2022-10-30T11:40:01.354Z,20.3
2022-10-30T11:41:01.153Z,20.3
2022-10-30T11:42:03.979Z,20.3
2022-10-30T11:43:03.858Z,20.4
2022-10-30T11:44:01.138Z,20.4
2022-10-30T11:45:01.795Z,20.4
2022-10-30T11:46:01.859Z,20.5
2022-10-30T11:47:01.067Z,20.5
2022-10-30T11:48:03.098Z,20.5
2022-10-30T11:49:01.066Z,20.5
2022-10-30T11:50:01.268Z,20.5
2022-10-30T11:51:01.869Z,20.5
2022-10-30T11:52:01.126Z,20.5
2022-10-30T11:53:01.105Z,20.5
2022-10-30T11:54:01.106Z,20.5
2022-10-30T11:55:01.109Z,20.5
2022-10-30T11:56:01.122Z,20.5
2022-10-30T11:57:01.116Z,20.5
2022-10-30T11:58:02.100Z,20.5
2022-10-30T11:59:01.391Z,20.5
2022-10-30T12:00:05.315Z,20.5
2022-10-30T12:01:01.163Z,20.5
2022-10-30T12:02:01.446Z,20.5
2022-10-30T12:03:01.558Z,20.6
2022-10-30T12:04:01.401Z,20.6
2022-10-30T12:05:01.165Z,20.6
2022-10-30T12:06:01.935Z,20.6
2022-10-30T12:07:01.662Z,20.6
2022-10-30T12:08:01.090Z,20.6
2022-10-30T12:09:01.049Z,20.6
2022-10-30T12:10:01.119Z,20.6
2022-10-30T12:11:01.071Z,20.6
2022-10-30T12:12:05.842Z,20.6
2022-10-30T12:13:01.577Z,20.6
2022-10-30T12:14:01.128Z,20.7
2022-10-30T12:15:01.141Z,20.7
2022-10-30T12:16:01.143Z,20.7
2022-10-30T12:17:01.053Z,20.7
2022-10-30T12:18:01.065Z,20.7
2022-10-30T12:19:01.457Z,20.7
2022-10-30T12:20:01.089Z,20.8
2022-10-30T12:21:01.076Z,20.8
2022-10-30T12:22:03.037Z,20.8
2022-10-30T12:23:02.010Z,20.8
2022-10-30T12:24:01.652Z,20.8
2022-10-30T12:25:01.898Z,20.9
2022-10-30T12:26:01.971Z,20.9
2022-10-30T12:27:01.466Z,20.9
2022-10-30T12:28:01.564Z,20.9
2022-10-30T12:29:01.363Z,21
2022-10-30T12:30:09.614Z,21
2022-10-30T12:31:01.123Z,21
2022-10-30T12:32:01.383Z,21
2022-10-30T12:33:05.374Z,21
2022-10-30T12:34:01.450Z,20.9
2022-10-30T12:35:01.344Z,20.9
2022-10-30T12:36:01.407Z,20.9
2022-10-30T12:37:01.466Z,20.9
2022-10-30T12:38:07.362Z,21
2022-10-30T12:39:01.590Z,21
2022-10-30T12:40:02.651Z,21
2022-10-30T12:41:01.291Z,21
2022-10-30T12:42:01.916Z,21
2022-10-30T12:43:10.056Z,21
2022-10-30T12:44:01.251Z,21
2022-10-30T12:45:01.437Z,21
2022-10-30T12:46:01.488Z,20.9
2022-10-30T12:47:01.151Z,20.9
2022-10-30T12:48:13.559Z,20.9
2022-10-30T12:49:01.070Z,20.9
2022-10-30T12:50:01.278Z,20.8
2022-10-30T12:51:01.061Z,20.8
2022-10-30T12:52:01.445Z,20.9
2022-10-30T12:53:15.164Z,20.9
2022-10-30T12:54:02.102Z,21
2022-10-30T12:55:01.330Z,21
2022-10-30T12:56:01.486Z,21
2022-10-30T12:57:02.229Z,21
2022-10-30T12:58:16.856Z,21.1
2022-10-30T12:59:02.030Z,21.1
2022-10-30T13:00:01.882Z,21.1
2022-10-30T13:01:00.962Z,21.1
2022-10-30T13:02:01.839Z,21.1
2022-10-30T13:03:01.973Z,21.1
2022-10-30T13:04:01.185Z,21.1
2022-10-30T13:05:01.279Z,21.2
2022-10-30T13:06:01.110Z,21.2
2022-10-30T13:07:01.461Z,21.2
2022-10-30T13:08:02.365Z,21.2
2022-10-30T13:09:01.689Z,21.2
2022-10-30T13:10:01.133Z,21.3
2022-10-30T13:11:01.080Z,21.3
2022-10-30T13:12:01.099Z,21.3
2022-10-30T13:13:01.049Z,21.3
2022-10-30T13:14:01.157Z,21.3
2022-10-30T13:15:01.151Z,21.3
2022-10-30T13:16:01.901Z,21.4
2022-10-30T13:17:01.241Z,21.4
2022-10-30T13:18:01.776Z,21.3
2022-10-30T13:19:02.409Z,21.3
2022-10-30T13:20:01.577Z,21.3
2022-10-30T13:21:01.160Z,21.3
2022-10-30T13:22:01.865Z,21.3
2022-10-30T13:23:02.404Z,21.4
2022-10-30T13:24:04.987Z,21.3
2022-10-30T13:25:03.951Z,21.3